Decoded Metar for KFKL (FRANKLIN in PA, USA) (IATA:FKL) | Meteo·Mobile Aviation Weather
aviador You're here:

KFKL Decoded Metar

FRANKLIN in PA, USA
Report Time2018-09-24 16:56:00
UTC Time2018-09-24 17:17:39
Flight Rules mvfr MVFR
Wind130° at 12 kt
W.Decomp.*RWY 12: 11.3 kt HW 4.1 kt RCW
RWY 21: 4.1 kt HW 11.3 kt LCW
W.Rank130° ranks 19
Current wind is above 130° avg. (7.6)
Visibility9999 m
Phenomena:N/A
Clouds:Overcast 015 Hf
Expected CloudBase > 1,200 ft AGL from Temp-Dew spread
Ceiling1,500 ft
Temp17°C (ISA +5)
Dew Point14°C (83% RH)
AAT14.0°C
QNH1026 hPa
Density Alt1,916 ft
Elevation1,539 ft
Report Wrong Elevation
Raw Report
KFKL 241656Z AUTO 13012KT 10SM OVC015 17/14 A3030 RMK AO2 SLP259
T01720144=

Extra information for KFKL:More info

Metar Taf Metar & Taf Last 4 Metars F.Rules Stats Wind Profile Meteogram Temp Stats Airport Information Weather charts Add Link Nearby VenuesMetar ALERT Operation Metar Decoded Social comments

AIRNAV info for KFKL